createdAt,value
2018-03-23T00:01:59.099Z,1.70
2018-03-23T00:04:25.232Z,1.93
2018-03-23T00:06:51.348Z,1.50
2018-03-23T00:09:17.484Z,1.80
2018-03-23T00:11:43.609Z,1.80
2018-03-23T00:14:10.341Z,2.00
2018-03-23T00:16:36.520Z,1.73
2018-03-23T00:19:02.650Z,1.60
2018-03-23T00:21:28.727Z,1.70
2018-03-23T00:23:54.890Z,1.70
2018-03-23T00:26:21.140Z,1.50
2018-03-23T00:28:47.395Z,1.60
2018-03-23T00:31:13.562Z,1.50
2018-03-23T00:33:39.713Z,1.80
2018-03-23T00:36:05.996Z,1.50
2018-03-23T00:38:32.309Z,1.20
2018-03-23T00:40:59.136Z,1.40
2018-03-23T00:43:25.924Z,1.20
2018-03-23T00:45:52.340Z,1.20
2018-03-23T00:48:18.664Z,1.27
2018-03-23T00:50:45.505Z,1.30
2018-03-23T00:53:12.455Z,1.50
2018-03-23T00:55:38.531Z,1.43
2018-03-23T00:58:04.596Z,1.40
2018-03-23T01:00:30.705Z,1.40
2018-03-23T01:02:56.803Z,1.50
2018-03-23T01:05:22.939Z,1.43
2018-03-23T01:07:49.054Z,1.30
2018-03-23T01:10:15.140Z,1.17
2018-03-23T01:12:41.285Z,1.23
2018-03-23T01:15:07.676Z,1.43
2018-03-23T01:17:34.011Z,1.40
2018-03-23T01:20:13.043Z,1.30
2018-03-23T01:22:44.053Z,1.10
2018-03-23T01:25:16.612Z,1.30
2018-03-23T01:27:44.001Z,1.20
2018-03-23T01:30:16.455Z,1.23
2018-03-23T01:32:43.220Z,1.30
2018-03-23T01:35:10.564Z,1.23
2018-03-23T01:37:36.679Z,1.50
2018-03-23T01:40:02.923Z,1.40
2018-03-23T01:42:29.047Z,1.10
2018-03-23T01:44:55.208Z,1.33
2018-03-23T01:47:21.268Z,1.10
2018-03-23T01:49:47.415Z,1.30
2018-03-23T01:52:13.516Z,1.17
2018-03-23T01:54:40.112Z,1.63
2018-03-23T01:57:06.417Z,1.67
2018-03-23T01:59:32.960Z,1.20
2018-03-23T02:01:59.452Z,1.13
2018-03-23T02:04:25.564Z,1.27
2018-03-23T02:06:51.641Z,1.50
2018-03-23T02:09:17.676Z,1.30
2018-03-23T02:11:43.824Z,1.40
2018-03-23T02:14:09.868Z,1.27
2018-03-23T02:16:35.947Z,1.60
2018-03-23T02:19:02.171Z,1.40
2018-03-23T02:21:28.412Z,1.10
2018-03-23T02:23:55.874Z,1.50
2018-03-23T02:26:21.971Z,1.10
2018-03-23T02:28:48.067Z,1.10
2018-03-23T02:31:14.333Z,1.60
2018-03-23T02:33:40.467Z,1.20
2018-03-23T02:36:06.787Z,1.20
2018-03-23T02:38:33.210Z,1.30
2018-03-23T02:40:59.344Z,1.40
2018-03-23T02:43:25.465Z,1.10
2018-03-23T02:45:51.672Z,1.53
2018-03-23T02:48:17.744Z,1.53
2018-03-23T02:50:45.604Z,1.33
2018-03-23T02:53:11.813Z,1.50
2018-03-23T02:55:38.326Z,1.30
2018-03-23T02:58:04.559Z,1.40
2018-03-23T03:00:30.869Z,1.27
2018-03-23T03:02:57.209Z,1.33
2018-03-23T03:05:23.355Z,1.50
2018-03-23T03:07:49.463Z,1.37
2018-03-23T03:10:15.738Z,1.43
2018-03-23T03:12:42.124Z,1.43
2018-03-23T03:15:08.584Z,1.40
2018-03-23T03:17:34.940Z,1.50
2018-03-23T03:20:01.190Z,1.50
2018-03-23T03:22:27.521Z,1.40
2018-03-23T03:24:53.701Z,1.40
2018-03-23T03:27:19.751Z,1.60
2018-03-23T03:29:45.919Z,1.50
2018-03-23T03:32:12.191Z,1.30
2018-03-23T03:34:38.385Z,1.43
2018-03-23T03:37:04.513Z,1.50
2018-03-23T03:39:30.566Z,1.60
2018-03-23T03:41:56.606Z,1.60
2018-03-23T03:44:22.651Z,1.70
2018-03-23T03:46:48.746Z,1.40
2018-03-23T03:49:14.818Z,1.47
2018-03-23T03:51:40.981Z,1.83
2018-03-23T03:54:07.133Z,1.73
2018-03-23T03:56:33.235Z,1.70
2018-03-23T03:58:59.477Z,1.50
2018-03-23T04:01:25.652Z,1.50
2018-03-23T04:03:51.834Z,1.80
2018-03-23T04:06:17.961Z,1.47
2018-03-23T04:08:44.092Z,1.70
2018-03-23T04:11:10.282Z,1.70
2018-03-23T04:13:36.422Z,1.60
2018-03-23T04:16:02.626Z,1.50
2018-03-23T04:18:29.032Z,1.63
2018-03-23T04:20:55.147Z,2.07
2018-03-23T04:23:21.194Z,1.60
2018-03-23T04:25:47.928Z,1.70
2018-03-23T04:28:13.977Z,1.70
2018-03-23T04:30:40.013Z,1.77
2018-03-23T04:33:06.067Z,1.57
2018-03-23T04:35:32.082Z,1.73
2018-03-23T04:37:58.150Z,1.90
2018-03-23T04:40:24.201Z,2.03
2018-03-23T04:42:50.226Z,1.90
2018-03-23T04:45:16.262Z,2.17
2018-03-23T04:47:42.353Z,2.07
2018-03-23T04:50:08.773Z,1.80
2018-03-23T04:52:35.007Z,1.60
2018-03-23T04:55:01.222Z,1.80
2018-03-23T04:57:27.415Z,1.73
2018-03-23T04:59:53.494Z,2.00
2018-03-23T05:02:19.757Z,1.80
2018-03-23T05:04:46.113Z,1.67
2018-03-23T05:07:12.393Z,1.40
2018-03-23T05:09:38.861Z,1.80
2018-03-23T05:12:05.696Z,1.50
2018-03-23T05:14:32.829Z,1.80
2018-03-23T05:16:59.640Z,1.60
2018-03-23T05:19:25.891Z,1.57
2018-03-23T05:21:52.183Z,1.97
2018-03-23T05:24:19.298Z,2.03
2018-03-23T05:26:45.992Z,2.10
2018-03-23T05:29:12.067Z,1.87
2018-03-23T05:31:38.427Z,2.00
2018-03-23T05:34:04.534Z,1.90
2018-03-23T05:36:30.750Z,2.30
2018-03-23T05:38:56.797Z,2.10
2018-03-23T05:41:22.895Z,2.20
2018-03-23T05:43:49.040Z,2.40
2018-03-23T05:46:15.098Z,2.33
2018-03-23T05:48:42.010Z,2.10
2018-03-23T05:51:08.145Z,2.27
2018-03-23T05:53:34.485Z,2.10
2018-03-23T05:56:01.171Z,2.13
2018-03-23T05:58:28.056Z,1.97
2018-03-23T06:00:54.191Z,2.17
2018-03-23T06:03:20.587Z,2.20
2018-03-23T06:05:46.774Z,2.57
2018-03-23T06:08:14.090Z,2.60
2018-03-23T06:10:41.236Z,2.53
2018-03-23T06:13:07.611Z,2.20
2018-03-23T06:15:33.873Z,2.70
2018-03-23T06:18:00.099Z,2.23
2018-03-23T06:20:26.229Z,2.10
2018-03-23T06:22:52.412Z,2.20
2018-03-23T06:25:18.595Z,2.33
2018-03-23T06:27:44.669Z,1.73
2018-03-23T06:30:10.884Z,1.90
2018-03-23T06:32:36.951Z,2.53
2018-03-23T06:35:03.180Z,2.73
2018-03-23T06:37:30.955Z,2.87
2018-03-23T06:39:57.058Z,13.07
2018-03-23T06:42:23.252Z,2.97
2018-03-23T06:44:49.436Z,1.93
2018-03-23T06:47:16.189Z,1.90
2018-03-23T06:49:42.883Z,1.90
2018-03-23T06:52:09.022Z,7.53
2018-03-23T06:54:35.337Z,2.20
2018-03-23T06:57:02.811Z,1.93
2018-03-23T06:59:28.934Z,1.97
2018-03-23T07:01:55.185Z,2.37
2018-03-23T07:04:22.027Z,2.17
2018-03-23T07:06:48.260Z,2.10
2018-03-23T07:09:14.476Z,1.60
2018-03-23T07:11:40.661Z,6.70
2018-03-23T07:14:13.752Z,4.87
2018-03-23T07:16:40.963Z,3.00
2018-03-23T07:19:07.734Z,5.37
2018-03-23T07:21:41.745Z,5.27
2018-03-23T07:24:08.598Z,5.43
2018-03-23T07:29:21.387Z,4.23
2018-03-23T07:31:49.554Z,2.37
2018-03-23T07:34:17.208Z,2.30
2018-03-23T07:36:57.501Z,2.40
2018-03-23T07:39:25.984Z,1.90
2018-03-23T07:41:52.809Z,3.37
2018-03-23T07:44:19.844Z,3.20
2018-03-23T07:46:46.256Z,3.80
2018-03-23T07:49:12.971Z,3.47
2018-03-23T07:54:15.566Z,3.07
2018-03-23T07:56:46.943Z,3.23
2018-03-23T07:59:13.848Z,3.83
2018-03-23T08:01:43.616Z,4.23
2018-03-23T08:04:11.352Z,5.37
2018-03-23T08:06:41.029Z,7.70
2018-03-23T08:09:07.600Z,9.13
2018-03-23T08:11:35.431Z,6.60
2018-03-23T08:14:05.825Z,7.47
2018-03-23T08:16:40.586Z,7.60
2018-03-23T08:19:12.469Z,6.10
2018-03-23T08:21:46.581Z,6.57
2018-03-23T08:24:13.013Z,5.87
2018-03-23T08:26:40.994Z,5.67
2018-03-23T08:29:07.626Z,5.57
2018-03-23T08:31:34.171Z,5.27
2018-03-23T08:34:01.557Z,4.97
2018-03-23T08:39:18.295Z,5.10
2018-03-23T08:41:45.317Z,5.57
2018-03-23T08:44:13.283Z,4.20
2018-03-23T08:46:44.176Z,4.63
2018-03-23T08:49:12.624Z,4.10
2018-03-23T08:51:42.813Z,3.97
2018-03-23T08:54:09.609Z,3.73
2018-03-23T08:56:36.764Z,3.70
2018-03-23T08:59:03.298Z,4.37
2018-03-23T09:01:34.888Z,3.23
2018-03-23T09:06:41.010Z,3.10
2018-03-23T09:09:17.869Z,3.50
2018-03-23T09:11:44.585Z,4.97
2018-03-23T09:17:34.897Z,2.60
2018-03-23T09:20:27.424Z,2.90
2018-03-23T09:22:55.865Z,3.20
2018-03-23T09:28:36.436Z,3.97
2018-03-23T09:31:41.207Z,2.13
2018-03-23T09:34:22.191Z,2.30
2018-03-23T09:45:36.607Z,2.70
2018-03-23T09:50:45.504Z,2.27
2018-03-23T09:53:32.647Z,2.70
2018-03-23T09:56:00.802Z,2.67
2018-03-23T09:58:27.850Z,2.70
2018-03-23T10:03:33.805Z,2.73
2018-03-23T10:06:00.640Z,2.73
2018-03-23T10:08:27.158Z,2.60
2018-03-23T10:10:54.438Z,2.43
2018-03-23T10:13:21.003Z,2.47
2018-03-23T10:15:49.850Z,2.43
2018-03-23T10:18:15.998Z,2.10
2018-03-23T10:20:43.852Z,2.47
2018-03-23T10:25:57.977Z,2.60
2018-03-23T10:28:24.679Z,2.57
2018-03-23T10:30:50.958Z,2.63
2018-03-23T10:33:17.604Z,3.40
2018-03-23T10:35:50.571Z,3.20
2018-03-23T10:38:16.857Z,2.30
2018-03-23T10:40:44.543Z,1.90
2018-03-23T10:43:11.153Z,1.60
2018-03-23T10:45:38.177Z,1.90
2018-03-23T10:48:07.071Z,1.77
2018-03-23T10:50:33.692Z,2.30
2018-03-23T10:53:01.164Z,2.47
2018-03-23T10:55:27.984Z,2.13
2018-03-23T10:57:55.131Z,2.17
2018-03-23T11:00:27.281Z,1.80
2018-03-23T11:02:53.634Z,1.70
2018-03-23T11:05:19.882Z,1.60
2018-03-23T11:07:55.297Z,1.50
2018-03-23T11:10:21.590Z,1.93
2018-03-23T11:12:47.721Z,1.80
2018-03-23T11:15:14.777Z,2.13
2018-03-23T11:17:41.162Z,1.70
2018-03-23T11:20:07.535Z,1.43
2018-03-23T11:22:33.855Z,1.53
2018-03-23T11:25:00.198Z,1.50
2018-03-23T11:27:26.253Z,1.30
2018-03-23T11:29:52.420Z,1.43
2018-03-23T11:32:18.695Z,0.90
2018-03-23T11:34:44.895Z,0.83
2018-03-23T11:37:11.075Z,0.90
2018-03-23T11:39:37.396Z,0.93
2018-03-23T11:42:09.774Z,0.93
2018-03-23T11:44:36.210Z,1.30
2018-03-23T11:47:05.389Z,0.90
2018-03-23T11:52:47.481Z,0.70
2018-03-23T11:55:31.767Z,1.03
2018-03-23T11:58:08.550Z,1.00
2018-03-23T12:00:50.197Z,0.90
2018-03-23T12:03:20.111Z,0.87
2018-03-23T12:05:47.858Z,0.80
2018-03-23T12:08:15.518Z,0.90
2018-03-23T12:16:14.865Z,1.00
2018-03-23T12:18:44.795Z,1.17
2018-03-23T12:21:12.644Z,0.93
2018-03-23T12:23:40.193Z,0.90
2018-03-23T12:26:14.979Z,1.00
2018-03-23T12:28:42.898Z,0.97
2018-03-23T12:31:10.563Z,0.83
2018-03-23T12:33:38.971Z,0.80
2018-03-23T12:36:10.353Z,0.80
2018-03-23T12:41:27.803Z,0.70
2018-03-23T12:46:27.516Z,1.20
2018-03-23T12:49:06.175Z,0.90
2018-03-23T12:51:35.231Z,1.30
2018-03-23T12:54:03.798Z,0.60
2018-03-23T12:56:31.339Z,0.80
2018-03-23T12:58:58.842Z,0.60
2018-03-23T13:01:26.613Z,0.50
2018-03-23T13:03:54.066Z,0.90
2018-03-23T13:06:22.391Z,0.80
2018-03-23T13:08:49.871Z,0.80
2018-03-23T13:11:17.286Z,1.00
2018-03-23T13:13:44.749Z,0.77
2018-03-23T13:18:40.127Z,0.80
2018-03-23T13:21:07.625Z,0.60
2018-03-23T13:23:35.404Z,0.83
2018-03-23T13:26:05.303Z,0.50
2018-03-23T13:28:33.065Z,0.60
2018-03-23T13:31:00.505Z,0.77
2018-03-23T13:33:27.996Z,0.53
2018-03-23T13:35:55.455Z,0.73
2018-03-23T13:38:22.872Z,0.50
2018-03-23T13:40:51.067Z,0.70
2018-03-23T13:43:18.596Z,0.67
2018-03-23T13:45:46.027Z,0.50
2018-03-23T13:48:15.826Z,0.40
2018-03-23T13:50:43.304Z,0.60
2018-03-23T13:53:10.803Z,2.00
2018-03-23T13:55:38.216Z,0.60
2018-03-23T13:58:05.771Z,0.70
2018-03-23T14:00:39.058Z,0.60
2018-03-23T14:03:06.809Z,0.60
2018-03-23T14:05:34.246Z,0.70
2018-03-23T14:08:01.688Z,0.63
2018-03-23T14:10:29.210Z,0.40
2018-03-23T14:12:56.711Z,0.50
2018-03-23T14:15:24.171Z,0.60
2018-03-23T14:17:51.728Z,0.30
2018-03-23T14:20:19.558Z,0.43
2018-03-23T14:22:47.115Z,0.50
2018-03-23T14:25:15.196Z,0.70
2018-03-23T14:27:43.319Z,0.60
2018-03-23T14:30:11.356Z,0.60
2018-03-23T14:32:38.915Z,0.40
2018-03-23T14:35:06.678Z,0.50
2018-03-23T14:37:34.194Z,0.50
2018-03-23T14:40:01.658Z,0.70
2018-03-23T14:42:29.121Z,0.50
2018-03-23T14:44:56.559Z,0.70
2018-03-23T14:47:24.491Z,0.40
2018-03-23T14:49:51.956Z,0.50
2018-03-23T14:52:19.422Z,0.40
2018-03-23T14:54:46.946Z,0.37
2018-03-23T14:57:14.406Z,0.70
2018-03-23T14:59:41.915Z,0.50
2018-03-23T15:02:10.349Z,0.20
2018-03-23T15:04:38.740Z,0.30
2018-03-23T15:07:06.228Z,1.00
2018-03-23T15:09:33.688Z,0.60
2018-03-23T15:12:01.113Z,0.60
2018-03-23T15:14:30.602Z,0.40
2018-03-23T15:16:58.085Z,0.63
2018-03-23T15:19:25.751Z,0.40
2018-03-23T15:21:55.761Z,0.50
2018-03-23T15:24:24.456Z,0.50
2018-03-23T15:26:52.136Z,0.57
2018-03-23T15:29:19.567Z,0.40
2018-03-23T15:31:47.030Z,0.80
2018-03-23T15:34:14.577Z,0.50
2018-03-23T15:36:42.035Z,0.60
2018-03-23T15:39:10.154Z,0.70
2018-03-23T15:41:38.392Z,0.60
2018-03-23T15:44:06.803Z,0.90
2018-03-23T15:46:35.341Z,0.70
2018-03-23T15:49:03.093Z,0.50
2018-03-23T15:51:30.568Z,0.90
2018-03-23T15:53:58.965Z,0.80
2018-03-23T15:56:27.089Z,0.60
2018-03-23T15:58:55.477Z,0.53
2018-03-23T16:01:23.039Z,0.80
2018-03-23T16:03:50.493Z,0.63
2018-03-23T16:06:17.904Z,0.63
2018-03-23T16:08:45.390Z,0.60
2018-03-23T16:11:12.854Z,0.73
2018-03-23T16:13:40.323Z,0.50
2018-03-23T16:16:07.841Z,0.63
2018-03-23T16:18:35.341Z,0.60
2018-03-23T16:21:02.882Z,0.40
2018-03-23T16:23:30.440Z,0.50
2018-03-23T16:25:58.196Z,0.70
2018-03-23T16:28:25.684Z,0.60
2018-03-23T16:30:53.154Z,0.60
2018-03-23T16:33:21.746Z,1.10
2018-03-23T16:37:18.520Z,0.53
2018-03-23T16:40:02.482Z,0.60
2018-03-23T16:42:46.693Z,0.60
2018-03-23T16:45:14.154Z,0.50
2018-03-23T16:47:41.713Z,0.43
2018-03-23T17:02:56.574Z,0.70
2018-03-23T17:05:30.350Z,0.87
2018-03-23T17:07:59.062Z,0.60
2018-03-23T17:10:26.559Z,0.47
2018-03-23T17:12:54.066Z,0.87
2018-03-23T17:15:21.546Z,0.83
2018-03-23T17:17:49.671Z,0.70
2018-03-23T17:20:17.080Z,0.90
2018-03-23T17:22:44.844Z,0.80
2018-03-23T17:25:12.369Z,0.60
2018-03-23T17:27:39.842Z,0.60
2018-03-23T17:30:08.331Z,0.70
2018-03-23T17:32:38.586Z,0.63
2018-03-23T17:35:09.530Z,0.50
2018-03-23T17:40:15.588Z,0.70
2018-03-23T17:42:44.249Z,0.70
2018-03-23T17:45:22.662Z,0.80
2018-03-23T17:47:50.442Z,0.73
2018-03-23T17:53:04.825Z,0.90
2018-03-23T17:55:39.637Z,0.90
2018-03-23T17:58:09.905Z,0.83
2018-03-23T18:00:37.570Z,0.77
2018-03-23T18:03:05.583Z,0.80
2018-03-23T18:17:54.515Z,1.00
2018-03-23T18:32:58.538Z,2.03
2018-03-23T18:35:48.363Z,1.10
2018-03-23T18:38:27.945Z,1.10
2018-03-23T18:40:55.595Z,1.20
2018-03-23T18:43:23.183Z,1.40
2018-03-23T18:45:50.904Z,1.40
2018-03-23T18:48:18.327Z,1.23
2018-03-23T18:50:46.256Z,1.10
2018-03-23T18:53:15.726Z,1.37
2018-03-23T18:55:43.823Z,1.27
2018-03-23T18:58:11.392Z,1.30
2018-03-23T19:00:38.910Z,1.30
2018-03-23T19:03:07.166Z,1.53
2018-03-23T19:05:34.603Z,1.43
2018-03-23T19:08:02.024Z,1.20
2018-03-23T19:10:29.468Z,1.20
2018-03-23T19:15:37.991Z,0.90
2018-03-23T19:18:05.378Z,1.10
2018-03-23T19:20:32.796Z,0.97
2018-03-23T19:23:00.268Z,0.90
2018-03-23T19:25:28.776Z,1.10
2018-03-23T19:27:56.273Z,1.40
2018-03-23T19:30:23.704Z,1.33
2018-03-23T19:32:51.153Z,1.23
2018-03-23T19:35:18.718Z,1.33
2018-03-23T19:37:46.215Z,1.17
2018-03-23T19:40:13.682Z,1.10
2018-03-23T19:42:41.763Z,1.40
2018-03-23T19:45:10.722Z,1.50
2018-03-23T19:50:49.559Z,1.30
2018-03-23T19:53:22.602Z,1.47
2018-03-23T19:55:53.059Z,1.67
2018-03-23T19:58:21.316Z,1.63
2018-03-23T20:00:48.994Z,1.70
2018-03-23T20:03:17.857Z,1.70
2018-03-23T20:05:47.962Z,1.67
2018-03-23T20:08:15.407Z,1.30
2018-03-23T20:10:42.961Z,1.40
2018-03-23T20:13:12.740Z,1.60
2018-03-23T20:15:40.226Z,1.70
2018-03-23T20:18:13.577Z,1.70
2018-03-23T20:20:46.671Z,1.80
2018-03-23T20:23:15.256Z,1.83
2018-03-23T20:34:48.077Z,1.43
2018-03-23T20:37:15.928Z,1.90
2018-03-23T20:39:43.511Z,1.40
2018-03-23T20:42:12.160Z,1.80
2018-03-23T20:44:42.138Z,1.80
2018-03-23T20:47:12.415Z,1.60
2018-03-23T20:49:39.967Z,1.90
2018-03-23T20:52:07.490Z,1.53
2018-03-23T20:54:35.057Z,1.30
2018-03-23T20:57:04.403Z,1.70
2018-03-23T20:59:32.077Z,1.57
2018-03-23T21:02:00.189Z,1.70
2018-03-23T21:04:30.048Z,1.53
2018-03-23T21:06:57.880Z,1.70
2018-03-23T21:09:25.340Z,1.63
2018-03-23T21:11:53.140Z,1.47
2018-03-23T21:14:22.636Z,1.50
2018-03-23T21:16:53.116Z,1.70
2018-03-23T21:21:55.832Z,1.77
2018-03-23T21:24:23.936Z,1.60
2018-03-23T21:26:51.392Z,1.70
2018-03-23T21:29:18.877Z,1.47
2018-03-23T21:31:46.376Z,1.90
2018-03-23T21:34:15.988Z,1.70
2018-03-23T21:36:43.808Z,1.83
2018-03-23T21:39:11.342Z,1.50
2018-03-23T21:41:38.884Z,1.83
2018-03-23T21:44:06.406Z,1.80
2018-03-23T21:46:34.996Z,1.90
2018-03-23T21:49:02.427Z,1.70
2018-03-23T21:51:30.166Z,1.80
2018-03-23T21:53:57.703Z,1.70
2018-03-23T21:56:25.373Z,2.00
2018-03-23T21:58:53.570Z,1.90
2018-03-23T22:01:24.104Z,1.63
2018-03-23T22:03:51.772Z,1.80
2018-03-23T22:06:20.345Z,1.80
2018-03-23T22:08:47.843Z,1.67
2018-03-23T22:11:22.396Z,1.87
2018-03-23T22:13:49.893Z,1.83
2018-03-23T22:16:17.429Z,1.80
2018-03-23T22:18:45.010Z,2.03
2018-03-23T22:21:12.627Z,2.00
2018-03-23T22:23:41.601Z,1.93
2018-03-23T22:26:09.129Z,1.70
2018-03-23T22:28:36.789Z,1.60
2018-03-23T22:31:11.028Z,1.80
2018-03-23T22:33:38.953Z,1.90
2018-03-23T22:36:06.376Z,1.80
2018-03-23T22:38:34.099Z,1.80
2018-03-23T22:43:34.376Z,1.70
2018-03-23T22:46:01.844Z,1.77
2018-03-23T22:48:29.370Z,1.97
2018-03-23T22:50:56.824Z,1.70
2018-03-23T22:53:24.719Z,1.83
2018-03-23T22:55:52.126Z,1.53
2018-03-23T22:58:19.658Z,1.60
2018-03-23T23:00:47.129Z,1.60
2018-03-23T23:03:15.758Z,1.77
2018-03-23T23:05:43.214Z,1.90
2018-03-23T23:08:11.451Z,1.60
2018-03-23T23:10:39.223Z,1.50
2018-03-23T23:13:06.807Z,1.37
2018-03-23T23:15:34.331Z,1.70
2018-03-23T23:18:03.538Z,1.70
2018-03-23T23:20:30.979Z,1.50
2018-03-23T23:22:58.577Z,1.70
2018-03-23T23:25:26.067Z,1.67
2018-03-23T23:27:54.546Z,1.50
2018-03-23T23:30:22.984Z,1.50
2018-03-23T23:32:51.329Z,1.70
2018-03-23T23:35:18.965Z,1.70
2018-03-23T23:37:46.792Z,1.77
2018-03-23T23:40:14.215Z,1.40
2018-03-23T23:42:41.637Z,1.63
2018-03-23T23:45:09.098Z,1.50
2018-03-23T23:47:36.781Z,2.07
2018-03-23T23:50:04.218Z,1.70
2018-03-23T23:52:31.711Z,1.70
2018-03-23T23:54:59.147Z,2.00
2018-03-23T23:57:26.613Z,1.83
2018-03-23T23:59:54.998Z,1.80
